createdAt,value
2018-12-27T00:00:59.241Z,7.20
2018-12-27T00:03:27.372Z,7.10
2018-12-27T00:05:55.637Z,7.10
2018-12-27T00:08:23.784Z,6.90
2018-12-27T00:10:52.204Z,6.10
2018-12-27T00:13:20.291Z,5.80
2018-12-27T00:15:49.541Z,5.80
2018-12-27T00:18:17.708Z,6.20
2018-12-27T00:20:45.901Z,6.40
2018-12-27T00:23:14.042Z,6.50
2018-12-27T00:25:42.652Z,6.70
2018-12-27T00:28:10.901Z,7.10
2018-12-27T00:30:39.472Z,7.40
2018-12-27T00:33:07.622Z,7.50
2018-12-27T00:35:35.991Z,7.70
2018-12-27T00:38:04.115Z,7.60
2018-12-27T00:40:32.312Z,7.80
2018-12-27T00:43:00.467Z,8.00
2018-12-27T00:45:29.804Z,8.20
2018-12-27T00:47:57.984Z,8.30
2018-12-27T00:50:27.245Z,8.00
2018-12-27T00:52:55.544Z,7.80
2018-12-27T00:55:23.789Z,7.90
2018-12-27T00:57:52.028Z,8.40
2018-12-27T01:00:20.208Z,7.90
2018-12-27T01:02:48.304Z,7.30
2018-12-27T01:05:16.551Z,6.90
2018-12-27T01:07:44.768Z,6.60
2018-12-27T01:10:13.059Z,6.30
2018-12-27T01:12:41.247Z,6.40
2018-12-27T01:15:09.347Z,6.20
2018-12-27T01:17:37.568Z,6.40
2018-12-27T01:20:05.660Z,6.50
2018-12-27T01:22:33.847Z,6.40
2018-12-27T01:25:01.943Z,6.40
2018-12-27T01:27:30.587Z,6.60
2018-12-27T01:29:58.745Z,6.80
2018-12-27T01:32:27.013Z,6.80
2018-12-27T01:34:55.229Z,6.80
2018-12-27T01:37:23.409Z,6.90
2018-12-27T01:39:52.544Z,7.20
2018-12-27T01:42:20.765Z,6.80
2018-12-27T01:44:48.867Z,6.90
2018-12-27T01:47:17.365Z,7.10
2018-12-27T01:49:45.564Z,7.10
2018-12-27T01:52:13.704Z,6.70
2018-12-27T01:54:41.880Z,7.10
2018-12-27T01:57:10.089Z,7.10
2018-12-27T01:59:38.207Z,7.60
2018-12-27T02:02:06.440Z,7.50
2018-12-27T02:04:34.533Z,7.10
2018-12-27T02:07:02.726Z,7.10
2018-12-27T02:09:30.965Z,7.10
2018-12-27T02:11:59.052Z,6.80
2018-12-27T02:14:27.280Z,7.00
2018-12-27T02:16:55.388Z,6.70
2018-12-27T02:19:23.601Z,6.60
2018-12-27T02:21:51.730Z,6.50
2018-12-27T02:24:23.123Z,6.10
2018-12-27T02:26:51.396Z,6.30
2018-12-27T02:29:19.680Z,6.10
2018-12-27T02:31:47.906Z,6.70
2018-12-27T02:34:16.113Z,6.30
2018-12-27T02:36:44.307Z,6.10
2018-12-27T02:39:12.446Z,6.20
2018-12-27T02:41:40.630Z,6.20
2018-12-27T02:44:08.741Z,6.50
2018-12-27T02:46:37.009Z,6.30
2018-12-27T02:49:05.115Z,6.30
2018-12-27T02:51:33.301Z,6.30
2018-12-27T02:54:01.538Z,6.20
2018-12-27T02:56:29.644Z,6.30
2018-12-27T02:58:59.173Z,5.90
2018-12-27T03:01:27.312Z,6.20
2018-12-27T03:03:55.538Z,6.10
2018-12-27T03:06:23.978Z,6.60
2018-12-27T03:08:52.109Z,6.90
2018-12-27T03:11:20.721Z,7.40
2018-12-27T03:13:49.213Z,7.10
2018-12-27T03:16:17.346Z,7.10
2018-12-27T03:18:45.785Z,7.10
2018-12-27T03:21:14.745Z,7.00
2018-12-27T03:23:42.938Z,7.00
2018-12-27T03:26:11.065Z,7.00
2018-12-27T03:28:39.552Z,7.00
2018-12-27T03:31:08.134Z,7.30
2018-12-27T03:33:36.280Z,7.40
2018-12-27T03:36:04.841Z,7.40
2018-12-27T03:38:33.646Z,7.10
2018-12-27T03:41:01.798Z,6.80
2018-12-27T03:43:29.953Z,7.30
2018-12-27T03:45:58.077Z,7.00
2018-12-27T03:48:26.325Z,6.80
2018-12-27T03:50:54.539Z,6.40
2018-12-27T03:53:22.674Z,6.20
2018-12-27T03:55:50.843Z,6.10
2018-12-27T03:58:18.995Z,6.00
2018-12-27T04:00:47.140Z,6.50
2018-12-27T04:03:17.185Z,6.80
2018-12-27T04:05:45.332Z,6.30
2018-12-27T04:08:13.526Z,6.40
2018-12-27T04:10:41.592Z,6.40
2018-12-27T04:13:09.766Z,6.50
2018-12-27T04:15:37.910Z,6.20
2018-12-27T04:18:06.109Z,6.50
2018-12-27T04:20:34.286Z,6.40
2018-12-27T04:23:02.500Z,6.40
2018-12-27T04:25:31.676Z,6.30
2018-12-27T04:27:59.811Z,6.00
2018-12-27T04:30:27.981Z,6.00
2018-12-27T04:32:56.672Z,5.80
2018-12-27T04:35:25.081Z,6.10
2018-12-27T04:37:53.304Z,6.00
2018-12-27T04:40:21.385Z,6.20
2018-12-27T04:42:49.739Z,5.70
2018-12-27T04:45:17.943Z,6.30
2018-12-27T04:47:46.098Z,6.00
2018-12-27T04:50:14.261Z,5.90
2018-12-27T04:52:42.411Z,6.00
2018-12-27T04:55:10.584Z,5.80
2018-12-27T04:57:38.759Z,5.90
2018-12-27T05:00:07.574Z,6.40
2018-12-27T05:02:35.751Z,6.20
2018-12-27T05:05:04.030Z,6.10
2018-12-27T05:07:33.543Z,6.00
2018-12-27T05:10:01.810Z,6.30
2018-12-27T05:12:30.057Z,6.80
2018-12-27T05:14:58.319Z,6.90
2018-12-27T05:17:26.482Z,7.00
2018-12-27T05:19:54.657Z,6.90
2018-12-27T05:22:22.949Z,6.90
2018-12-27T05:24:51.127Z,7.00
2018-12-27T05:27:19.261Z,6.80
2018-12-27T05:29:47.397Z,6.80
2018-12-27T05:32:15.567Z,6.80
2018-12-27T05:34:45.548Z,6.60
2018-12-27T05:37:13.577Z,6.60
2018-12-27T05:39:41.738Z,6.60
2018-12-27T05:42:09.809Z,6.70
2018-12-27T05:44:37.992Z,6.90
2018-12-27T05:47:06.162Z,6.70
2018-12-27T05:49:34.307Z,6.50
2018-12-27T05:52:02.464Z,5.90
2018-12-27T05:54:34.754Z,6.10
2018-12-27T05:57:03.036Z,6.00
2018-12-27T05:59:31.237Z,5.50
2018-12-27T06:01:59.402Z,5.40
2018-12-27T06:04:33.746Z,5.10
2018-12-27T06:06:57.448Z,5.30
2018-12-27T06:09:25.514Z,5.50
2018-12-27T06:11:53.645Z,5.50
2018-12-27T06:14:21.765Z,5.60
2018-12-27T06:16:50.058Z,5.70
2018-12-27T06:19:18.246Z,5.70
2018-12-27T06:21:46.426Z,5.60
2018-12-27T06:24:14.590Z,5.40
2018-12-27T06:26:42.626Z,5.40
2018-12-27T06:29:10.812Z,5.20
2018-12-27T06:31:38.834Z,5.30
2018-12-27T06:34:07.090Z,5.40
2018-12-27T06:36:35.314Z,5.30
2018-12-27T06:39:05.455Z,5.40
2018-12-27T06:41:33.650Z,5.50
2018-12-27T06:44:01.880Z,5.50
2018-12-27T06:46:30.057Z,5.60
2018-12-27T06:48:58.217Z,5.60
2018-12-27T06:51:26.442Z,5.80
2018-12-27T06:53:54.941Z,5.90
2018-12-27T06:56:23.111Z,6.00
2018-12-27T06:58:51.573Z,6.00
2018-12-27T07:01:19.776Z,5.70
2018-12-27T07:03:47.940Z,5.90
2018-12-27T07:06:16.117Z,6.00
2018-12-27T07:08:44.285Z,5.80
2018-12-27T07:11:12.810Z,5.40
2018-12-27T07:13:41.142Z,5.50
2018-12-27T07:16:09.266Z,5.70
2018-12-27T07:18:37.443Z,6.10
2018-12-27T07:21:05.715Z,6.00
2018-12-27T07:23:33.977Z,6.00
2018-12-27T07:26:03.248Z,6.40
2018-12-27T07:28:31.464Z,6.00
2018-12-27T07:30:59.525Z,6.30
2018-12-27T07:33:27.651Z,6.60
2018-12-27T07:35:56.125Z,7.00
2018-12-27T07:38:24.198Z,7.60
2018-12-27T07:40:52.687Z,9.10
2018-12-27T07:43:20.690Z,14.50
2018-12-27T07:45:48.805Z,16.40
2018-12-27T07:48:16.912Z,17.40
2018-12-27T07:50:45.017Z,18.30
2018-12-27T07:53:13.094Z,18.80
2018-12-27T07:55:41.369Z,19.60
2018-12-27T07:58:09.428Z,19.30
2018-12-27T08:00:37.641Z,19.40
2018-12-27T08:03:05.745Z,19.60
2018-12-27T08:05:33.961Z,19.70
2018-12-27T08:08:02.129Z,19.60
2018-12-27T08:10:30.293Z,19.90
2018-12-27T08:12:59.515Z,20.40
2018-12-27T08:15:27.781Z,20.50
2018-12-27T08:17:56.008Z,20.60
2018-12-27T08:20:24.289Z,21.00
2018-12-27T08:22:54.001Z,20.80
2018-12-27T08:25:23.173Z,20.30
2018-12-27T08:27:53.553Z,20.90
2018-12-27T08:30:22.056Z,20.80
2018-12-27T08:32:50.311Z,20.10
2018-12-27T08:35:18.417Z,19.40
2018-12-27T08:37:46.661Z,20.80
2018-12-27T08:40:15.265Z,19.60
2018-12-27T08:42:43.564Z,19.90
2018-12-27T08:45:11.716Z,20.00
2018-12-27T08:47:40.264Z,19.20
2018-12-27T08:50:08.409Z,17.30
2018-12-27T08:52:36.702Z,14.90
2018-12-27T08:55:05.481Z,14.90
2018-12-27T08:57:34.048Z,14.70
2018-12-27T09:00:02.165Z,13.70
2018-12-27T09:02:30.372Z,14.50
2018-12-27T09:05:01.375Z,13.90
2018-12-27T09:07:30.083Z,13.90
2018-12-27T09:09:58.773Z,14.10
2018-12-27T09:12:28.249Z,14.80
2018-12-27T09:14:56.495Z,14.50
2018-12-27T09:17:24.697Z,14.90
2018-12-27T09:19:52.861Z,14.40
2018-12-27T09:22:21.087Z,14.10
2018-12-27T09:24:49.317Z,13.70
2018-12-27T09:27:18.412Z,13.60
2018-12-27T09:29:46.581Z,13.20
2018-12-27T09:32:14.693Z,13.80
2018-12-27T09:34:44.091Z,13.60
2018-12-27T09:37:12.173Z,13.80
2018-12-27T09:39:40.375Z,13.50
2018-12-27T09:42:08.496Z,13.10
2018-12-27T09:44:36.650Z,13.50
2018-12-27T09:47:04.840Z,13.30
2018-12-27T09:49:32.989Z,13.60
2018-12-27T09:52:02.166Z,13.50
2018-12-27T09:54:30.584Z,13.00
2018-12-27T09:56:58.842Z,13.20
2018-12-27T09:59:27.039Z,13.40
2018-12-27T10:01:55.469Z,13.40
2018-12-27T10:04:24.078Z,13.60
2018-12-27T10:06:52.362Z,13.40
2018-12-27T10:09:20.600Z,13.10
2018-12-27T10:11:49.347Z,12.80
2018-12-27T10:14:17.473Z,13.40
2018-12-27T10:16:45.785Z,13.80
2018-12-27T10:19:14.139Z,13.40
2018-12-27T10:21:42.653Z,13.50
2018-12-27T10:24:10.830Z,14.20
2018-12-27T10:26:38.953Z,13.50
2018-12-27T10:29:07.246Z,13.60
2018-12-27T10:31:35.528Z,13.30
2018-12-27T10:34:03.660Z,13.10
2018-12-27T10:36:31.989Z,13.60
2018-12-27T10:39:06.178Z,13.20
2018-12-27T10:41:34.454Z,13.30
2018-12-27T10:44:02.729Z,13.70
2018-12-27T10:46:30.878Z,13.20
2018-12-27T10:48:59.220Z,13.60
2018-12-27T10:51:27.832Z,13.60
2018-12-27T10:53:56.119Z,13.40
2018-12-27T10:56:24.715Z,13.70
2018-12-27T10:58:53.141Z,13.80
2018-12-27T11:01:21.401Z,13.70
2018-12-27T11:03:49.625Z,13.80
2018-12-27T11:06:18.072Z,13.80
2018-12-27T11:08:46.338Z,14.10
2018-12-27T11:11:14.507Z,14.30
2018-12-27T11:13:42.791Z,14.20
2018-12-27T11:16:11.057Z,14.10
2018-12-27T11:18:39.172Z,14.20
2018-12-27T11:21:07.339Z,13.90
2018-12-27T11:23:35.705Z,13.80
2018-12-27T11:26:03.992Z,14.10
2018-12-27T11:28:32.172Z,14.30
2018-12-27T11:31:00.341Z,14.30
2018-12-27T11:33:29.117Z,13.40
2018-12-27T11:35:57.295Z,13.40
2018-12-27T11:38:25.560Z,13.60
2018-12-27T11:40:53.841Z,13.80
2018-12-27T11:43:22.702Z,13.70
2018-12-27T11:45:51.454Z,13.80
2018-12-27T11:48:19.558Z,14.20
2018-12-27T11:50:47.806Z,14.20
2018-12-27T11:53:16.226Z,14.20
2018-12-27T11:55:45.396Z,14.20
2018-12-27T11:58:13.481Z,14.60
2018-12-27T12:00:41.749Z,14.60
2018-12-27T12:03:10.199Z,14.60
2018-12-27T12:05:38.459Z,14.60
2018-12-27T12:08:06.747Z,14.30
2018-12-27T12:10:34.905Z,14.40
2018-12-27T12:13:03.342Z,14.70
2018-12-27T12:15:33.484Z,15.00
2018-12-27T12:18:01.792Z,14.80
2018-12-27T12:20:30.105Z,14.40
2018-12-27T12:22:58.341Z,14.40
2018-12-27T12:25:26.692Z,14.50
2018-12-27T12:27:54.886Z,14.60
2018-12-27T12:30:23.071Z,14.50
2018-12-27T12:32:51.955Z,14.90
2018-12-27T12:35:20.044Z,15.00
2018-12-27T12:37:49.596Z,14.70
2018-12-27T12:40:17.687Z,14.70
2018-12-27T12:42:46.265Z,15.20
2018-12-27T12:45:14.440Z,15.20
2018-12-27T12:47:43.457Z,15.00
2018-12-27T12:50:12.036Z,15.10
2018-12-27T12:52:40.308Z,15.10
2018-12-27T12:55:08.515Z,14.70
2018-12-27T12:57:36.722Z,14.70
2018-12-27T13:00:07.613Z,14.80
2018-12-27T13:02:35.772Z,15.00
2018-12-27T13:05:04.384Z,15.00
2018-12-27T13:07:33.124Z,15.00
2018-12-27T13:10:01.339Z,15.00
2018-12-27T13:12:29.484Z,15.10
2018-12-27T13:14:57.636Z,14.80
2018-12-27T13:17:25.832Z,14.80
2018-12-27T13:19:54.759Z,15.00
2018-12-27T13:22:22.914Z,14.90
2018-12-27T13:24:51.140Z,15.40
2018-12-27T13:27:19.387Z,15.30
2018-12-27T13:29:47.611Z,14.90
2018-12-27T13:32:15.737Z,15.10
2018-12-27T13:34:44.067Z,15.00
2018-12-27T13:37:12.473Z,15.10
2018-12-27T13:39:40.762Z,15.10
2018-12-27T13:42:09.364Z,15.10
2018-12-27T13:44:37.691Z,15.50
2018-12-27T13:47:06.350Z,15.30
2018-12-27T13:49:34.600Z,15.40
2018-12-27T13:52:02.846Z,15.10
2018-12-27T13:54:31.138Z,14.90
2018-12-27T13:56:59.608Z,15.00
2018-12-27T13:59:27.934Z,15.00
2018-12-27T14:01:56.173Z,15.00
2018-12-27T14:04:24.392Z,15.10
2018-12-27T14:06:52.463Z,15.00
2018-12-27T14:09:21.129Z,15.00
2018-12-27T14:11:49.270Z,14.90
2018-12-27T14:14:17.532Z,14.90
2018-12-27T14:16:45.839Z,15.00
2018-12-27T14:19:14.097Z,15.10
2018-12-27T14:21:42.637Z,15.10
2018-12-27T14:24:10.806Z,15.20
2018-12-27T14:26:39.020Z,15.10
2018-12-27T14:29:07.142Z,15.30
2018-12-27T14:31:35.392Z,14.90
2018-12-27T14:34:03.957Z,14.80
2018-12-27T14:36:32.252Z,14.60
2018-12-27T14:39:00.481Z,14.40
2018-12-27T14:41:28.730Z,14.20
2018-12-27T14:43:57.002Z,14.20
2018-12-27T14:46:25.088Z,14.70
2018-12-27T14:48:53.299Z,14.90
2018-12-27T14:51:21.410Z,14.70
2018-12-27T14:53:49.659Z,14.40
2018-12-27T14:56:20.313Z,14.00
2018-12-27T14:58:48.740Z,14.00
2018-12-27T15:01:16.878Z,14.30
2018-12-27T15:03:45.123Z,14.40
2018-12-27T15:06:13.265Z,14.20
2018-12-27T15:08:41.527Z,14.40
2018-12-27T15:11:09.676Z,14.30
2018-12-27T15:13:37.958Z,14.00
2018-12-27T15:16:06.161Z,13.70
2018-12-27T15:18:34.330Z,13.90
2018-12-27T15:21:02.912Z,13.90
2018-12-27T15:23:31.144Z,13.70
2018-12-27T15:25:59.249Z,13.60
2018-12-27T15:28:27.491Z,13.60
2018-12-27T15:30:55.881Z,13.70
2018-12-27T15:33:24.071Z,13.80
2018-12-27T15:35:52.517Z,13.90
2018-12-27T15:38:20.633Z,13.50
2018-12-27T15:40:48.849Z,13.20
2018-12-27T15:43:17.016Z,13.10
2018-12-27T15:45:45.178Z,12.90
2018-12-27T15:48:13.476Z,12.80
2018-12-27T15:50:41.497Z,12.90
2018-12-27T15:53:09.652Z,12.70
2018-12-27T15:55:38.113Z,12.90
2018-12-27T15:58:06.380Z,12.70
2018-12-27T16:00:34.798Z,12.60
2018-12-27T16:03:03.258Z,12.40
2018-12-27T16:05:32.517Z,12.20
2018-12-27T16:08:00.739Z,12.00
2018-12-27T16:10:28.886Z,12.10
2018-12-27T16:12:57.070Z,12.10
2018-12-27T16:15:25.211Z,11.70
2018-12-27T16:17:53.435Z,11.40
2018-12-27T16:20:21.625Z,11.60
2018-12-27T16:22:50.056Z,11.50
2018-12-27T16:25:18.609Z,11.30
2018-12-27T16:27:46.753Z,10.90
2018-12-27T16:30:15.171Z,11.10
2018-12-27T16:32:43.390Z,11.20
2018-12-27T16:35:11.677Z,10.90
2018-12-27T16:37:39.964Z,10.80
2018-12-27T16:40:08.390Z,10.90
2018-12-27T16:42:36.542Z,11.00
2018-12-27T16:45:05.355Z,11.10
2018-12-27T16:47:33.541Z,11.00
2018-12-27T16:50:01.854Z,10.80
2018-12-27T16:52:31.011Z,10.90
2018-12-27T16:54:59.288Z,11.00
2018-12-27T16:57:27.560Z,11.50
2018-12-27T16:59:55.661Z,11.50
2018-12-27T17:02:24.587Z,10.90
2018-12-27T17:04:52.750Z,10.60
2018-12-27T17:07:21.267Z,11.00
2018-12-27T17:09:49.474Z,11.10
2018-12-27T17:12:18.476Z,10.70
2018-12-27T17:14:46.700Z,10.90
2018-12-27T17:17:14.909Z,10.80
2018-12-27T17:19:43.012Z,10.80
2018-12-27T17:22:12.045Z,10.70
2018-12-27T17:24:41.057Z,10.90
2018-12-27T17:27:09.313Z,10.80
2018-12-27T17:29:37.481Z,10.80
2018-12-27T17:32:05.724Z,10.80
2018-12-27T17:34:33.886Z,10.90
2018-12-27T17:37:02.040Z,10.90
2018-12-27T17:39:30.637Z,11.20
2018-12-27T17:41:59.233Z,11.30
2018-12-27T17:44:27.313Z,11.50
2018-12-27T17:46:55.579Z,10.60
2018-12-27T17:49:23.670Z,10.70
2018-12-27T17:51:51.860Z,10.50
2018-12-27T17:54:20.060Z,10.30
2018-12-27T17:56:49.349Z,10.10
2018-12-27T17:59:17.679Z,10.10
2018-12-27T18:01:46.619Z,10.10
2018-12-27T18:04:14.757Z,10.20
2018-12-27T18:06:43.036Z,10.30
2018-12-27T18:09:11.177Z,9.80
2018-12-27T18:11:39.403Z,9.80
2018-12-27T18:14:07.565Z,10.10
2018-12-27T18:16:35.785Z,10.10
2018-12-27T18:19:03.885Z,10.20
2018-12-27T18:21:32.109Z,10.10
2018-12-27T18:24:00.321Z,10.00
2018-12-27T18:26:28.620Z,9.90
2018-12-27T18:28:56.817Z,9.60
2018-12-27T18:31:26.277Z,9.50
2018-12-27T18:33:54.357Z,9.60
2018-12-27T18:36:22.974Z,9.60
2018-12-27T18:38:51.116Z,9.60
2018-12-27T18:41:19.430Z,9.70
2018-12-27T18:43:48.022Z,9.80
2018-12-27T18:46:16.393Z,9.80
2018-12-27T18:48:44.650Z,9.80
2018-12-27T18:51:12.773Z,10.00
2018-12-27T18:53:40.985Z,9.80
2018-12-27T18:56:09.454Z,9.90
2018-12-27T18:58:37.815Z,9.80
2018-12-27T19:01:05.921Z,9.70
2018-12-27T19:03:34.104Z,9.80
2018-12-27T19:06:02.283Z,9.80
2018-12-27T19:08:30.568Z,10.00
2018-12-27T19:11:35.176Z,9.90
2018-12-27T19:14:03.338Z,9.90
2018-12-27T19:16:31.544Z,9.70
2018-12-27T19:18:59.760Z,10.10
2018-12-27T19:21:46.504Z,10.60
2018-12-27T19:24:15.705Z,10.50
2018-12-27T19:26:44.053Z,10.10
2018-12-27T19:29:12.270Z,10.10
2018-12-27T19:31:40.381Z,10.40
2018-12-27T19:34:09.829Z,10.30
2018-12-27T19:36:38.366Z,10.10
2018-12-27T19:39:06.680Z,10.00
2018-12-27T19:41:34.948Z,9.50
2018-12-27T19:44:03.187Z,9.50
2018-12-27T19:46:32.181Z,9.80
2018-12-27T19:49:00.812Z,9.90
2018-12-27T19:51:28.964Z,9.50
2018-12-27T19:53:57.515Z,9.70
2018-12-27T19:56:26.436Z,10.10
2018-12-27T19:58:54.665Z,9.80
2018-12-27T20:01:22.897Z,9.70
2018-12-27T20:03:50.988Z,9.60
2018-12-27T20:06:19.367Z,9.40
2018-12-27T20:08:48.131Z,9.40
2018-12-27T20:11:18.751Z,9.20
2018-12-27T20:13:47.167Z,9.40
2018-12-27T20:16:15.392Z,9.00
2018-12-27T20:18:43.603Z,8.90
2018-12-27T20:21:11.947Z,8.90
2018-12-27T20:23:39.926Z,9.50
2018-12-27T20:26:08.165Z,9.50
2018-12-27T20:28:36.306Z,9.10
2018-12-27T20:31:04.495Z,9.00
2018-12-27T20:33:33.656Z,9.20
2018-12-27T20:36:01.896Z,9.10
2018-12-27T20:38:33.066Z,9.00
2018-12-27T20:41:03.633Z,8.90
2018-12-27T20:43:32.414Z,8.70
2018-12-27T20:46:02.932Z,8.60
2018-12-27T20:48:32.823Z,8.50
2018-12-27T20:51:00.962Z,8.60
2018-12-27T20:53:32.173Z,8.70
2018-12-27T20:56:01.703Z,8.40
2018-12-27T20:58:30.014Z,7.90
2018-12-27T21:00:58.285Z,7.70
2018-12-27T21:03:28.042Z,7.70
2018-12-27T21:05:58.309Z,7.90
2018-12-27T21:08:28.640Z,8.10
2018-12-27T21:10:57.399Z,8.20
2018-12-27T21:13:30.593Z,8.30
2018-12-27T21:16:00.891Z,8.40
2018-12-27T21:18:31.357Z,8.40
2018-12-27T21:21:03.642Z,8.40
2018-12-27T21:23:33.016Z,8.30
2018-12-27T21:26:03.887Z,8.20
2018-12-27T21:28:36.957Z,8.10
2018-12-27T21:31:07.755Z,8.40
2018-12-27T21:33:37.798Z,8.10
2018-12-27T21:36:08.638Z,8.40
2018-12-27T21:38:39.293Z,8.40
2018-12-27T21:41:07.761Z,8.20
2018-12-27T21:43:36.258Z,8.10
2018-12-27T21:46:04.536Z,8.40
2018-12-27T21:48:32.715Z,8.50
2018-12-27T21:51:00.852Z,8.70
2018-12-27T21:53:28.985Z,8.80
2018-12-27T21:55:57.085Z,8.90
2018-12-27T21:58:25.194Z,8.90
2018-12-27T22:00:53.647Z,8.90
2018-12-27T22:03:22.058Z,9.20
2018-12-27T22:05:50.221Z,8.90
2018-12-27T22:08:18.380Z,9.20
2018-12-27T22:10:47.421Z,9.20
2018-12-27T22:13:15.567Z,9.20
2018-12-27T22:15:43.708Z,8.90
2018-12-27T22:18:12.232Z,8.80
2018-12-27T22:20:41.309Z,8.80
2018-12-27T22:23:09.554Z,8.50
2018-12-27T22:25:37.704Z,8.70
2018-12-27T22:28:05.933Z,8.30
2018-12-27T22:30:34.572Z,7.90
2018-12-27T22:33:02.656Z,8.20
2018-12-27T22:35:30.876Z,8.30
2018-12-27T22:37:59.105Z,8.40
2018-12-27T22:40:27.341Z,8.50
2018-12-27T22:42:55.988Z,8.90
2018-12-27T22:45:24.224Z,8.80
2018-12-27T22:47:52.263Z,8.60
2018-12-27T22:50:20.518Z,8.40
2018-12-27T22:52:48.678Z,8.30
2018-12-27T22:55:17.017Z,8.10
2018-12-27T22:57:45.314Z,8.60
2018-12-27T23:00:21.064Z,8.20
2018-12-27T23:02:51.025Z,8.10
2018-12-27T23:05:22.281Z,7.60
2018-12-27T23:07:51.487Z,7.50
2018-12-27T23:10:19.728Z,7.40
2018-12-27T23:12:47.812Z,7.50
2018-12-27T23:15:16.017Z,7.60
2018-12-27T23:17:44.536Z,7.70
2018-12-27T23:20:12.823Z,7.30
2018-12-27T23:22:40.961Z,7.10
2018-12-27T23:25:09.172Z,7.10
2018-12-27T23:27:38.284Z,7.40
2018-12-27T23:30:07.381Z,7.10
2018-12-27T23:32:35.509Z,7.00
2018-12-27T23:35:03.980Z,6.90
2018-12-27T23:37:32.148Z,7.00
2018-12-27T23:40:00.551Z,7.00
2018-12-27T23:42:28.819Z,7.20
2018-12-27T23:44:57.040Z,6.90
2018-12-27T23:47:25.157Z,7.00
2018-12-27T23:49:53.394Z,7.20
2018-12-27T23:52:21.487Z,7.00
2018-12-27T23:54:49.689Z,7.30
2018-12-27T23:57:17.837Z,7.10
2018-12-27T23:59:46.067Z,6.80
